Time;durP1;ratioP1;P1;durP2;ratioP2;P2;SDS_P1;SDS_P2;PMS_P1;PMS_P2;Temp;Humidity;BMP_temperature;BMP_pressure;BME280_temperature;BME280_humidity;BME280_pressure;Samples;Min_cycle;Max_cycle;Signal;HPM_P1;HPM_P2
2022/08/25 05:40:17;;;;;;;11.32;8.05;;;;;;;20.15;100.00;100382.22;6598996;26;221425;-90
2022/08/25 05:43:20;;;;;;;14.18;7.90;;;;;;;20.44;100.00;100392.19;6608093;26;34448;-90
2022/08/25 05:50:09;;;;;;;14.40;7.18;;;;;;;20.68;100.00;100391.78;6601875;26;20036;-91
2022/08/25 05:53:12;;;;;;;13.27;8.15;;;;;;;21.10;100.00;100395.16;6608243;26;34015;-90
2022/08/25 05:56:15;;;;;;;18.12;8.30;;;;;;;21.27;100.00;100385.50;6603151;26;34139;-90
2022/08/25 05:59:18;;;;;;;11.25;7.12;;;;;;;21.68;100.00;100385.22;6586918;26;33050;-89
2022/08/25 06:05:42;;;;;;;14.98;7.28;;;;;;;22.38;100.00;100383.81;6610435;27;33906;-91
2022/08/25 06:08:44;;;;;;;12.57;7.60;;;;;;;22.52;100.00;100387.84;6605244;27;33803;-93
2022/08/25 06:11:47;;;;;;;13.98;7.93;;;;;;;22.81;99.40;100394.88;6606240;27;34199;-91
2022/08/25 06:18:59;;;;;;;12.15;6.45;;;;;;;23.76;95.52;100396.00;6602535;26;20149;-90
2022/08/25 06:22:10;;;;;;;20.50;7.10;;;;;;;24.04;92.70;100393.06;6600826;26;33847;-90
2022/08/25 06:25:14;;;;;;;11.75;6.87;;;;;;;23.97;91.55;100394.72;6587628;27;32844;-91
2022/08/25 06:28:18;;;;;;;11.10;6.70;;;;;;;24.15;90.96;100396.50;6607907;27;34491;-90
2022/08/25 06:31:21;;;;;;;14.30;7.25;;;;;;;24.16;89.60;100403.63;6586109;27;34338;-89
2022/08/25 06:34:24;;;;;;;14.18;6.90;;;;;;;24.40;89.30;100410.13;6605166;27;34263;-90
2022/08/25 06:37:29;;;;;;;9.25;6.80;;;;;;;24.69;87.44;100406.91;6586142;27;34256;-89
2022/08/25 06:40:32;;;;;;;13.60;6.75;;;;;;;25.03;83.99;100408.66;6606265;27;33822;-90
2022/08/25 06:43:35;;;;;;;13.23;7.28;;;;;;;25.60;82.08;100416.03;6601060;26;34884;-89
2022/08/25 06:46:38;;;;;;;13.75;6.10;;;;;;;25.78;80.63;100421.22;6605315;27;33729;-88
2022/08/25 06:49:42;;;;;;;15.13;5.97;;;;;;;26.03;79.05;100419.25;6604955;27;34202;-88
2022/08/25 06:52:45;;;;;;;17.35;6.03;;;;;;;26.29;77.98;100414.59;6605392;27;33832;-88
2022/08/25 06:55:56;;;;;;;16.17;6.55;;;;;;;25.88;78.84;100424.59;6586090;27;32498;-88
2022/08/25 06:59:01;;;;;;;15.30;6.22;;;;;;;26.80;74.57;100410.47;6585140;27;34023;-88
2022/08/25 07:02:04;;;;;;;12.55;6.12;;;;;;;27.43;73.03;100422.00;6587767;27;33516;-88
2022/08/25 07:05:07;;;;;;;19.75;6.03;;;;;;;28.11;68.99;100412.00;6606268;27;34176;-88
2022/08/25 07:08:14;;;;;;;14.65;5.47;;;;;;;28.16;68.08;100414.97;6606652;27;34203;-88
2022/08/25 07:11:20;;;;;;;12.18;5.97;;;;;;;27.95;69.88;100410.34;6605382;27;33607;-88
2022/08/25 07:14:22;;;;;;;9.98;5.43;;;;;;;27.86;70.68;100401.44;6584894;27;33942;-89
2022/08/25 07:17:26;;;;;;;13.88;5.90;;;;;;;27.44;72.03;100409.19;6586347;27;32389;-89
2022/08/25 07:20:30;;;;;;;12.77;5.97;;;;;;;27.43;73.77;100415.69;6605903;27;34218;-93
2022/08/25 07:23:33;;;;;;;14.60;6.32;;;;;;;27.32;73.91;100411.56;6609112;27;34038;-93
2022/08/25 07:26:37;;;;;;;15.10;6.28;;;;;;;27.19;74.62;100409.47;6604366;27;34763;-93
2022/08/25 07:29:42;;;;;;;14.07;6.45;;;;;;;26.75;74.88;100411.03;6605311;27;35029;-87
2022/08/25 07:32:45;;;;;;;18.02;7.25;;;;;;;26.91;75.52;100404.62;6586327;27;32507;-86
2022/08/25 07:35:47;;;;;;;13.70;6.25;;;;;;;27.33;73.61;100406.94;6606266;27;34642;-87
2022/08/25 07:38:51;;;;;;;12.32;5.60;;;;;;;26.25;77.98;100408.66;6605143;27;34552;-86
2022/08/25 07:41:56;;;;;;;11.23;6.45;;;;;;;26.89;77.15;100407.50;6605399;26;34476;-86
2022/08/25 07:44:59;;;;;;;14.87;6.70;;;;;;;26.75;74.13;100402.87;6606054;27;34266;-88
2022/08/25 07:48:08;;;;;;;13.80;6.62;;;;;;;27.13;73.69;100408.34;6605974;27;34852;-87
2022/08/25 07:51:13;;;;;;;13.70;6.30;;;;;;;28.13;70.60;100401.75;6587054;27;32998;-87
2022/08/25 07:54:16;;;;;;;12.27;6.60;;;;;;;28.68;67.47;100400.44;6586280;27;32239;-87
2022/08/25 07:57:20;;;;;;;13.27;5.82;;;;;;;29.69;63.80;100402.06;6586389;27;32808;-87
2022/08/25 08:00:26;;;;;;;12.63;6.03;;;;;;;29.99;62.31;100398.19;6585585;27;32918;-88
2022/08/25 08:03:35;;;;;;;14.52;6.05;;;;;;;29.21;63.98;100396.50;6605464;27;34029;-87
2022/08/25 08:06:52;;;;;;;11.48;5.85;;;;;;;30.10;61.28;100400.34;6585822;27;32944;-88
2022/08/25 08:09:55;;;;;;;12.63;6.57;;;;;;;30.60;59.27;100401.94;6604994;27;33855;-88
2022/08/25 08:13:18;;;;;;;17.35;6.12;;;;;;;31.18;56.92;100400.47;6587297;27;32532;-86
2022/08/25 08:16:25;;;;;;;12.70;5.60;;;;;;;31.49;55.47;100392.66;6617670;27;34108;-88
2022/08/25 08:19:27;;;;;;;12.90;5.55;;;;;;;31.63;55.21;100401.69;6585856;27;35123;-88
2022/08/25 08:22:30;;;;;;;13.13;6.20;;;;;;;31.53;56.27;100404.03;6587154;27;33343;-88
2022/08/25 08:25:33;;;;;;;15.10;6.55;;;;;;;31.66;55.51;100406.72;6586064;27;32605;-88
2022/08/25 08:28:36;;;;;;;11.90;5.07;;;;;;;30.91;55.91;100403.25;6586233;27;33283;-88
2022/08/25 08:31:39;;;;;;;10.55;5.62;;;;;;;31.64;53.56;100410.72;6605695;27;34354;-87
2022/08/25 08:34:50;;;;;;;11.90;5.20;;;;;;;32.26;51.13;100397.41;6585979;27;32813;-88
2022/08/25 08:37:53;;;;;;;17.80;5.68;;;;;;;32.54;49.62;100396.19;6587752;27;33019;-88
2022/08/25 08:45:50;;;;;;;10.85;4.43;;;;;;;32.71;47.35;100392.03;6588292;27;33919;-87
2022/08/25 08:49:03;;;;;;;7.93;4.30;;;;;;;33.15;46.96;100390.22;6533063;27;33047;-87
2022/08/25 08:52:08;;;;;;;9.45;3.90;;;;;;;32.40;48.17;100398.19;6585480;27;32632;-87
2022/08/25 08:55:25;;;;;;;7.37;3.33;;;;;;;31.38;48.07;100398.78;6604914;27;34638;-87
2022/08/25 08:58:41;;;;;;;9.88;3.67;;;;;;;32.94;44.04;100391.44;6584680;27;32612;-87
2022/08/25 09:01:55;;;;;;;8.15;3.05;;;;;;;33.36;42.26;100382.59;6606228;27;34083;-87
2022/08/25 09:05:01;;;;;;;10.13;3.80;;;;;;;32.71;43.12;100387.41;6599959;26;35179;-87
2022/08/25 09:08:09;;;;;;;9.10;3.30;;;;;;;32.39;44.82;100387.41;6606900;27;34045;-89
2022/08/25 09:15:08;;;;;;;6.93;3.90;;;;;;;33.99;42.37;100386.06;6551896;27;37082;-89
2022/08/25 09:18:42;;;;;;;8.30;3.97;;;;;;;33.84;43.06;100369.97;6551138;27;34436;-88
2022/08/25 09:22:14;;;;;;;6.50;3.72;;;;;;;34.50;40.75;100368.44;6552414;27;34441;-89
2022/08/25 09:25:46;;;;;;;13.68;4.12;;;;;;;34.55;41.88;100368.56;6551814;27;34025;-88
2022/08/25 09:29:14;;;;;;;7.28;3.60;;;;;;;34.92;40.45;100370.28;6551626;27;34714;-88
2022/08/25 09:32:19;;;;;;;12.80;3.67;;;;;;;34.16;40.75;100363.44;6552403;27;34455;-90
2022/08/25 09:35:35;;;;;;;6.43;3.78;;;;;;;34.94;38.48;100362.66;6537376;27;33150;-89
2022/08/25 09:38:39;;;;;;;7.32;3.75;;;;;;;34.49;39.53;100355.75;6537102;27;33054;-89
2022/08/25 09:41:47;;;;;;;9.32;4.07;;;;;;;34.58;40.58;100348.03;6530827;27;32932;-89
2022/08/25 09:44:53;;;;;;;8.98;3.80;;;;;;;35.34;38.56;100341.78;6550335;27;35269;-89
2022/08/25 09:47:55;;;;;;;6.78;3.28;;;;;;;34.72;38.56;100341.19;6551369;27;34258;-88
2022/08/25 09:51:26;;;;;;;7.70;3.53;;;;;;;35.43;37.02;100343.06;6551567;27;33796;-88
2022/08/25 09:54:30;;;;;;;7.62;3.50;;;;;;;34.77;37.61;100335.81;6551198;27;33601;-88
2022/08/25 09:57:49;;;;;;;7.07;3.80;;;;;;;35.39;36.12;100330.03;6551874;27;34041;-88
2022/08/25 10:01:15;;;;;;;6.72;3.78;;;;;;;35.91;35.63;100322.78;6531884;27;32870;-88
2022/08/25 10:04:32;;;;;;;8.80;3.58;;;;;;;35.91;35.44;100308.97;6554537;27;33936;-88
2022/08/25 10:07:46;;;;;;;10.25;3.45;;;;;;;37.54;33.12;100310.09;6553621;27;33810;-87
2022/08/25 10:10:56;;;;;;;5.43;3.33;;;;;;;38.77;29.52;100311.53;6551986;27;34198;-91
2022/08/25 10:14:13;;;;;;;9.23;3.42;;;;;;;40.60;27.93;100304.56;6552565;27;34030;-89
2022/08/25 10:17:26;;;;;;;9.27;3.45;;;;;;;38.98;29.38;100303.31;6535594;27;33987;-88
2022/08/25 10:20:31;;;;;;;9.15;3.95;;;;;;;38.36;30.52;100300.94;6555448;27;33899;-90
2022/08/25 10:23:50;;;;;;;7.00;3.33;;;;;;;37.13;31.58;100299.38;6552580;27;34682;-91
2022/08/25 10:26:55;;;;;;;6.43;3.62;;;;;;;37.01;32.64;100291.19;6534561;27;33304;-88
2022/08/25 10:30:05;;;;;;;7.43;3.33;;;;;;;36.70;32.92;100290.75;6556478;27;34620;-90
2022/08/25 10:33:17;;;;;;;6.55;3.72;;;;;;;35.86;33.50;100285.72;6533470;27;32563;-90
2022/08/25 10:36:31;;;;;;;5.20;3.65;;;;;;;35.52;33.71;100279.25;6552614;27;33877;-90
2022/08/25 10:39:40;;;;;;;6.90;3.40;;;;;;;34.90;35.51;100282.38;6552333;27;34086;-90
2022/08/25 10:43:20;;;;;;;5.60;3.58;;;;;;;36.32;33.81;100273.84;6581748;27;34978;-89
2022/08/25 10:50:35;;;;;;;13.00;3.60;;;;;;;41.28;25.26;100275.47;6565805;26;20071;-89
2022/08/25 10:54:00;;;;;;;8.63;3.72;;;;;;;42.43;24.28;100264.34;6590937;26;33370;-90
2022/08/25 11:35:34;;;;;;;8.77;4.28;;;;;;;35.38;35.21;100226.34;6560123;26;34803;-88
2022/08/25 11:57:30;;;;;;;13.02;4.35;;;;;;;32.99;39.45;100182.03;6601105;26;20071;-90
2022/08/25 12:00:42;;;;;;;8.55;4.18;;;;;;;32.46;41.52;100184.25;6606833;26;35394;-90
2022/08/25 12:03:48;;;;;;;8.35;4.47;;;;;;;32.98;41.05;100183.91;6602768;26;34364;-89
2022/08/25 12:14:24;;;;;;;10.05;4.25;;;;;;;33.57;39.43;100174.25;6611607;26;20068;-88
2022/08/25 12:21:09;;;;;;;14.15;4.10;;;;;;;33.35;37.99;100172.03;6605135;26;20088;-89
2022/08/25 12:24:15;;;;;;;10.77;4.40;;;;;;;33.25;38.02;100171.75;6579536;26;32768;-89
2022/08/25 12:27:29;;;;;;;8.82;4.45;;;;;;;32.50;39.32;100172.63;6605867;27;33817;-89
2022/08/25 12:30:52;;;;;;;9.73;4.00;;;;;;;32.64;40.51;100170.53;6605881;27;33946;-90
2022/08/25 12:41:29;;;;;;;9.38;4.20;;;;;;;32.48;39.22;100160.19;6607309;26;20075;-89
2022/08/25 12:44:38;;;;;;;8.43;4.72;;;;;;;32.25;40.32;100164.38;6581847;26;32670;-89
2022/08/25 12:47:46;;;;;;;8.82;4.25;;;;;;;32.05;40.32;100156.34;6605850;27;33836;-89
2022/08/25 12:51:07;;;;;;;13.70;4.68;;;;;;;32.30;40.48;100152.72;6587081;27;33370;-89
2022/08/25 12:54:09;;;;;;;12.00;4.70;;;;;;;32.51;40.13;100151.47;6588187;27;33766;-89
2022/08/25 12:57:39;;;;;;;12.85;4.47;;;;;;;31.89;41.18;100149.50;6609196;27;34221;-89
2022/08/25 13:01:00;;;;;;;8.88;4.05;;;;;;;31.75;39.44;100144.12;6586325;27;32807;-89
2022/08/25 13:04:18;;;;;;;10.10;4.10;;;;;;;32.03;39.75;100139.28;6606473;27;33984;-89
2022/08/25 13:08:01;;;;;;;12.18;3.92;;;;;;;32.51;38.87;100138.63;6596682;26;34113;-89
2022/08/25 13:11:17;;;;;;;10.40;4.40;;;;;;;32.20;39.21;100140.38;6533316;27;32853;-88
2022/08/25 13:14:45;;;;;;;8.88;4.25;;;;;;;31.93;40.15;100137.88;6532767;27;32572;-88
2022/08/25 13:17:49;;;;;;;10.13;4.53;;;;;;;31.94;41.00;100136.84;6552050;27;33757;-89
2022/08/25 13:21:16;;;;;;;14.80;4.55;;;;;;;31.84;39.27;100136.47;6552077;27;35296;-88
2022/08/25 13:24:33;;;;;;;10.82;4.47;;;;;;;31.85;40.70;100127.19;6552903;27;34134;-88
2022/08/25 13:27:50;;;;;;;11.48;4.15;;;;;;;32.27;39.46;100143.91;6551129;27;34279;-88
2022/08/25 13:30:58;;;;;;;6.75;3.90;;;;;;;32.05;40.62;100126.16;6551327;27;33994;-88
2022/08/25 13:34:04;;;;;;;11.50;4.60;;;;;;;32.27;40.19;100129.31;6550910;27;33890;-89
2022/08/25 13:37:32;;;;;;;9.75;4.25;;;;;;;32.18;40.67;100119.72;6534959;27;34505;-93
2022/08/25 13:40:35;;;;;;;10.35;4.32;;;;;;;32.06;40.79;100112.22;6534412;27;33498;-89
2022/08/25 13:47:38;;;;;;;9.75;4.20;;;;;;;32.26;40.71;100112.03;6607298;26;20063;-89
2022/08/25 13:50:47;;;;;;;11.00;4.32;;;;;;;31.86;41.43;100113.25;6600163;26;34991;-89
2022/08/25 14:01:45;;;;;;;11.10;4.60;;;;;;;31.52;41.58;100109.91;6607758;26;20190;-89
2022/08/25 14:04:51;;;;;;;8.95;4.78;;;;;;;31.76;42.21;100109.31;6607082;26;33803;-89
2022/08/25 14:07:55;;;;;;;8.98;4.43;;;;;;;31.93;42.27;100109.62;6607364;27;35194;-89
2022/08/25 14:15:00;;;;;;;9.77;4.50;;;;;;;31.70;42.80;100098.19;6614987;26;20029;-90
2022/08/25 14:18:09;;;;;;;8.25;4.12;;;;;;;31.65;43.31;100098.00;6585664;27;33132;-89
2022/08/25 14:21:15;;;;;;;7.72;4.37;;;;;;;31.76;43.13;100096.44;6586503;27;32967;-90
2022/08/25 14:24:22;;;;;;;8.10;4.72;;;;;;;31.54;43.08;100099.59;6605642;27;34337;-90
2022/08/25 14:27:25;;;;;;;14.20;4.72;;;;;;;31.24;43.94;100093.84;6604512;27;34319;-90
2022/08/25 14:30:32;;;;;;;9.45;4.22;;;;;;;31.15;44.42;100088.63;6606514;27;33956;-89
2022/08/25 14:33:40;;;;;;;11.73;4.80;;;;;;;31.46;43.88;100097.09;6586916;27;32474;-89
2022/08/25 14:36:44;;;;;;;9.93;4.20;;;;;;;31.35;44.34;100093.16;6607376;27;34314;-90
2022/08/25 14:39:47;;;;;;;14.20;4.32;;;;;;;31.25;44.54;100090.03;6608734;27;33985;-89
2022/08/25 14:42:56;;;;;;;10.35;4.87;;;;;;;31.50;44.31;100075.56;6607403;27;34466;-90
2022/08/25 14:46:08;;;;;;;8.13;4.30;;;;;;;31.18;45.03;100074.50;6607169;27;34035;-89
2022/08/25 14:49:25;;;;;;;10.90;4.53;;;;;;;31.08;45.25;100076.91;6606114;27;33987;-88
2022/08/25 14:52:29;;;;;;;12.90;5.07;;;;;;;31.20;44.41;100074.28;6586290;26;32947;-89
2022/08/25 14:55:32;;;;;;;9.80;4.37;;;;;;;31.25;45.40;100076.34;6605626;27;34697;-88
2022/08/25 14:58:38;;;;;;;9.57;4.28;;;;;;;31.25;44.85;100079.09;6604327;27;34013;-89
2022/08/25 15:01:56;;;;;;;10.23;4.23;;;;;;;31.52;44.65;100071.53;6587303;27;34888;-89
2022/08/25 15:05:04;;;;;;;9.68;4.37;;;;;;;31.00;45.28;100071.66;6586297;27;32629;-89
